Time;durP1;ratioP1;P1;durP2;ratioP2;P2;SDS_P1;SDS_P2;PMS_P1;PMS_P2;Temp;Humidity;BMP_temperature;BMP_pressure;BME280_temperature;BME280_humidity;BME280_pressure;Samples;Min_cycle;Max_cycle;Signal;HPM_P1;HPM_P2
2022/02/10 00:06:20;;;;;;;19.65;10.30;;;;;;;;;;5111317;28;20199;-79
2022/02/10 00:14:33;;;;;;;14.60;9.65;;;;;;;;;;5113020;28;20188;-78
2022/02/10 00:17:24;;;;;;;13.10;9.90;;;;;;;;;;5110946;28;20524;-79
2022/02/10 00:20:09;;;;;;;13.05;10.00;;;;;;;;;;5095301;28;20212;-79
2022/02/10 00:22:48;;;;;;;14.00;9.05;;;;;;;;;;5100060;28;20602;-79
2022/02/10 00:36:07;;;;;;;14.93;9.60;;;;;;;;;;5092682;28;20315;-79
2022/02/10 00:38:38;;;;;;;14.40;8.90;;;;;;;;;;5097738;28;20211;-79
2022/02/10 00:41:05;;;;;;;12.05;9.50;;;;;;;;;;5092537;28;20213;-77
2022/02/10 00:43:33;;;;;;;14.85;9.10;;;;;;;;;;5090355;28;20200;-79
2022/02/10 00:46:15;;;;;;;12.40;9.38;;;;;;;;;;5105265;28;20185;-79
2022/02/10 00:48:43;;;;;;;13.02;8.48;;;;;;;;;;5067277;28;20216;-79
2022/02/10 00:51:10;;;;;;;15.45;9.00;;;;;;;;;;5068183;28;20218;-78
2022/02/10 00:53:40;;;;;;;18.10;9.60;;;;;;;;;;5053985;28;20213;-78
2022/02/10 00:56:09;;;;;;;22.77;8.85;;;;;;;;;;5053136;28;20221;-78
2022/02/10 00:58:39;;;;;;;16.13;9.57;;;;;;;;;;5047349;28;20202;-79
2022/02/10 01:30:27;;;;;;;15.63;8.80;;;;;;;;;;5092566;28;20216;-78
2022/02/10 01:32:58;;;;;;;14.82;9.02;;;;;;;;;;5097196;28;20201;-79
2022/02/10 01:35:26;;;;;;;18.75;9.40;;;;;;;;;;5110090;28;20228;-78
2022/02/10 01:37:54;;;;;;;10.45;8.40;;;;;;;;;;5106607;28;20231;-79
2022/02/10 01:40:27;;;;;;;19.15;8.68;;;;;;;;;;5090275;28;20725;-79
2022/02/10 01:57:36;;;;;;;16.38;9.70;;;;;;;;;;5091929;28;20280;-80
2022/02/10 02:04:43;;;;;;;11.05;8.52;;;;;;;;;;5110219;28;20192;-77
2022/02/10 02:07:10;;;;;;;13.13;8.00;;;;;;;;;;5098788;28;20196;-78
2022/02/10 02:09:38;;;;;;;12.60;7.72;;;;;;;;;;5108971;28;20235;-77
2022/02/10 02:12:07;;;;;;;11.70;7.25;;;;;;;;;;5108017;28;20189;-79
2022/02/10 02:14:35;;;;;;;9.90;7.38;;;;;;;;;;5092890;28;20531;-78
2022/02/10 02:17:04;;;;;;;9.77;8.13;;;;;;;;;;5101000;28;20699;-78
2022/02/10 02:19:32;;;;;;;18.30;8.52;;;;;;;;;;5109533;28;20200;-79
2022/02/10 02:22:01;;;;;;;13.73;8.00;;;;;;;;;;5109460;28;20533;-79
2022/02/10 02:24:28;;;;;;;11.77;7.72;;;;;;;;;;5108964;28;20645;-78
2022/02/10 02:26:59;;;;;;;9.38;7.40;;;;;;;;;;5107268;28;20193;-78
2022/02/10 02:29:32;;;;;;;11.70;7.43;;;;;;;;;;5094584;28;20292;-79
2022/02/10 02:32:03;;;;;;;11.02;7.97;;;;;;;;;;5091273;28;20289;-77
2022/02/10 02:34:56;;;;;;;12.00;7.28;;;;;;;;;;5091297;28;20266;-78
2022/02/10 03:07:05;;;;;;;10.10;6.85;;;;;;;;;;5107858;28;20284;-78
2022/02/10 03:09:40;;;;;;;12.23;7.65;;;;;;;;;;5109467;28;20193;-79
2022/02/10 03:12:09;;;;;;;9.52;6.90;;;;;;;;;;5095439;28;20205;-78
2022/02/10 03:14:44;;;;;;;9.13;6.75;;;;;;;;;;5095580;28;20193;-79
2022/02/10 03:20:01;;;;;;;11.90;7.75;;;;;;;;;;5067611;28;20253;-78
2022/02/10 03:22:45;;;;;;;9.07;7.22;;;;;;;;;;5079489;28;21452;-79
2022/02/10 04:03:09;;;;;;;7.88;6.30;;;;;;;;;;5073432;28;20205;-77
2022/02/10 04:08:33;;;;;;;10.25;5.75;;;;;;;;;;5094333;28;20212;-79
2022/02/10 04:11:21;;;;;;;10.50;6.57;;;;;;;;;;5091618;28;20213;-79
2022/02/10 04:13:59;;;;;;;8.27;6.05;;;;;;;;;;5091158;28;20233;-79
2022/02/10 04:16:30;;;;;;;8.93;6.53;;;;;;;;;;5102624;28;20224;-79
2022/02/10 04:19:35;;;;;;;9.15;6.82;;;;;;;;;;5111712;28;20200;-79
2022/02/10 04:22:01;;;;;;;8.65;6.72;;;;;;;;;;5092594;28;20200;-80
2022/02/10 04:24:58;;;;;;;9.30;7.03;;;;;;;;;;5096696;28;20587;-79
2022/02/10 04:27:48;;;;;;;11.32;6.90;;;;;;;;;;5090595;28;20197;-79
2022/02/10 04:30:31;;;;;;;12.30;7.20;;;;;;;;;;5097112;28;20213;-78
2022/02/10 04:38:50;;;;;;;13.57;7.38;;;;;;;;;;5100256;28;20197;-79
2022/02/10 04:44:31;;;;;;;12.02;6.78;;;;;;;;;;5094194;28;20212;-78
2022/02/10 04:57:59;;;;;;;15.75;8.07;;;;;;;;;;5104668;28;20535;-78
2022/02/10 05:00:43;;;;;;;13.77;7.78;;;;;;;;;;5103452;28;20213;-78
2022/02/10 05:12:11;;;;;;;8.93;7.50;;;;;;;;;;5096524;28;20195;-78
2022/02/10 05:17:12;;;;;;;10.23;6.80;;;;;;;;;;5109465;28;20224;-78
2022/02/10 05:33:18;;;;;;;9.27;6.97;;;;;;;;;;5109286;28;20218;-79
2022/02/10 05:35:49;;;;;;;9.60;7.72;;;;;;;;;;5109097;28;20224;-78
2022/02/10 05:38:22;;;;;;;12.18;7.07;;;;;;;;;;5109451;28;20189;-79
2022/02/10 05:41:30;;;;;;;10.43;7.28;;;;;;;;;;5103960;28;20225;-79
2022/02/10 05:43:52;;;;;;;11.10;7.80;;;;;;;;;;5101317;28;20199;-78
2022/02/10 05:46:37;;;;;;;10.30;6.75;;;;;;;;;;5111480;28;20217;-78
2022/02/10 05:49:28;;;;;;;11.20;7.63;;;;;;;;;;5094313;28;20215;-78
2022/02/10 05:52:29;;;;;;;9.25;7.13;;;;;;;;;;5093457;28;20280;-79
2022/02/10 05:55:04;;;;;;;12.95;7.85;;;;;;;;;;5094093;28;20207;-79
2022/02/10 05:57:45;;;;;;;11.65;7.20;;;;;;;;;;5110534;28;20354;-78
2022/02/10 06:48:59;;;;;;;14.40;6.70;;;;;;;;;;5094028;28;20197;-78
2022/02/10 06:51:35;;;;;;;10.95;7.32;;;;;;;;;;5087549;28;20209;-78
2022/02/10 06:54:13;;;;;;;10.18;6.90;;;;;;;;;;5087665;28;20554;-79
2022/02/10 06:57:06;;;;;;;8.75;6.25;;;;;;;;;;5089113;28;20239;-79
2022/02/10 07:05:27;;;;;;;11.77;7.90;;;;;;;;;;5098120;28;20196;-78
2022/02/10 07:08:11;;;;;;;12.52;7.70;;;;;;;;;;5106585;28;20209;-80
2022/02/10 07:13:43;;;;;;;9.20;6.88;;;;;;;;;;5112607;28;20721;-80
2022/02/10 07:16:39;;;;;;;10.25;7.07;;;;;;;;;;5112761;28;20224;-79
2022/02/10 07:44:13;;;;;;;7.85;6.38;;;;;;;;;;5092373;28;20193;-78
2022/02/10 07:49:14;;;;;;;11.70;6.30;;;;;;;;;;5086329;28;20228;-79
2022/02/10 07:54:30;;;;;;;12.60;6.80;;;;;;;;;;5091702;28;20193;-81
2022/02/10 07:57:09;;;;;;;9.93;6.13;;;;;;;;;;5092469;28;20224;-81
2022/02/10 08:00:02;;;;;;;8.45;6.15;;;;;;;;;;5092832;28;20275;-79
2022/02/10 08:56:26;;;;;;;19.42;10.32;;;;;;;;;;5082128;28;20197;-79
2022/02/10 08:59:23;;;;;;;17.17;9.38;;;;;;;;;;5094672;28;20202;-80
2022/02/10 09:02:11;;;;;;;18.75;9.27;;;;;;;;;;5089324;28;20200;-82
2022/02/10 09:04:49;;;;;;;16.20;10.27;;;;;;;;;;5089178;28;20189;-80
2022/02/10 09:07:44;;;;;;;17.20;9.90;;;;;;;;;;5085681;28;20220;-81
2022/02/10 09:10:34;;;;;;;15.85;10.82;;;;;;;;;;5081630;28;20209;-80
2022/02/10 09:13:26;;;;;;;14.77;9.47;;;;;;;;;;5070294;28;20197;-79
2022/02/10 09:18:58;;;;;;;11.60;8.40;;;;;;;;;;5112488;28;20192;-78
2022/02/10 09:59:27;;;;;;;15.10;9.60;;;;;;;;;;5090246;28;20452;-78
2022/02/10 10:02:03;;;;;;;13.20;8.93;;;;;;;;;;5093316;28;20523;-77
2022/02/10 10:04:36;;;;;;;12.90;8.63;;;;;;;;;;5100679;28;20430;-79
2022/02/10 10:07:18;;;;;;;15.47;8.03;;;;;;;;;;5088920;28;21621;-78
2022/02/10 10:09:57;;;;;;;11.70;9.20;;;;;;;;;;5104859;28;20506;-79
2022/02/10 10:15:20;;;;;;;16.60;8.70;;;;;;;;;;5096143;28;20493;-76
2022/02/10 10:21:11;;;;;;;13.20;8.90;;;;;;;;;;5090752;28;20497;-79
2022/02/10 10:23:51;;;;;;;13.80;8.10;;;;;;;;;;5077098;28;20448;-81
2022/02/10 10:51:03;;;;;;;14.30;9.67;;;;;;;;;;5093465;28;20474;-77
2022/02/10 10:53:38;;;;;;;11.13;7.93;;;;;;;;;;5095378;28;20520;-79
2022/02/10 10:56:10;;;;;;;13.23;8.60;;;;;;;;;;5094559;28;20525;-76
2022/02/10 10:58:42;;;;;;;12.87;8.73;;;;;;;;;;5084167;28;21038;-79
2022/02/10 11:04:53;;;;;;;13.40;8.90;;;;;;;;;;5087305;28;20512;-78
2022/02/10 11:37:38;;;;;;;10.40;7.63;;;;;;;;;;5093419;28;21041;-81
2022/02/10 11:40:07;;;;;;;10.20;7.17;;;;;;;;;;5087994;28;20507;-78
2022/02/10 11:42:46;;;;;;;16.37;8.00;;;;;;;;;;5087996;28;20519;-78
2022/02/10 11:48:32;;;;;;;10.57;6.73;;;;;;;;;;5103891;28;20476;-78
2022/02/10 12:37:30;;;;;;;6.40;5.57;;;;;;;;;;5090685;28;21019;-79
2022/02/10 12:42:01;;;;;;;8.70;5.60;;;;;;;;;;5089138;28;20509;-80
2022/02/10 13:23:39;;;;;;;15.43;9.73;;;;;;;;;;5093078;28;20463;-83
2022/02/10 13:48:17;;;;;;;15.20;8.90;;;;;;;;;;5093943;28;20456;-81
2022/02/10 14:10:24;;;;;;;15.43;6.70;;;;;;;;;;5094386;28;20493;-79
2022/02/10 14:12:48;;;;;;;13.67;9.03;;;;;;;;;;5090967;28;20503;-79
2022/02/10 14:15:26;;;;;;;13.93;9.80;;;;;;;;;;5092105;28;20423;-79
2022/02/10 14:18:06;;;;;;;12.73;8.50;;;;;;;;;;5085839;28;20583;-80
2022/02/10 14:20:39;;;;;;;10.10;8.60;;;;;;;;;;5087161;28;20967;-80
2022/02/10 14:23:18;;;;;;;10.97;8.03;;;;;;;;;;5088339;28;20471;-79
2022/02/10 14:25:52;;;;;;;9.20;8.40;;;;;;;;;;5094712;28;20450;-79
2022/02/10 14:28:21;;;;;;;7.83;7.03;;;;;;;;;;5092007;28;20508;-80
2022/02/10 14:30:48;;;;;;;8.77;6.73;;;;;;;;;;5091973;28;20439;-80
2022/02/10 14:33:22;;;;;;;7.50;6.20;;;;;;;;;;5087476;28;20446;-80
2022/02/10 14:35:55;;;;;;;6.37;5.50;;;;;;;;;;5085728;28;20474;-79
2022/02/10 14:38:36;;;;;;;8.70;5.67;;;;;;;;;;5088020;28;20553;-80
2022/02/10 14:41:28;;;;;;;8.87;6.57;;;;;;;;;;5088190;28;20972;-78
2022/02/10 15:46:19;;;;;;;3.13;2.20;;;;;;;;;;5109853;28;20503;-82
2022/02/10 15:49:20;;;;;;;6.90;3.97;;;;;;;;;;5107479;28;20485;-81
2022/02/10 15:52:01;;;;;;;3.77;2.90;;;;;;;;;;5092379;28;20450;-79
2022/02/10 16:10:57;;;;;;;3.13;2.83;;;;;;;;;;5095464;28;20447;-79
2022/02/10 16:23:01;;;;;;;2.80;2.60;;;;;;;;;;4999967;28;20873;-79
2022/02/10 16:28:24;;;;;;;3.20;2.77;;;;;;;;;;4993359;28;20454;-77
2022/02/10 16:30:52;;;;;;;3.40;3.03;;;;;;;;;;5071918;28;20554;-78
2022/02/10 16:33:20;;;;;;;4.07;3.10;;;;;;;;;;5102153;28;20786;-78
2022/02/10 16:35:47;;;;;;;5.13;2.80;;;;;;;;;;5099584;28;20500;-78
2022/02/10 16:38:14;;;;;;;3.80;2.90;;;;;;;;;;5099079;28;20846;-80
2022/02/10 16:40:42;;;;;;;5.80;2.60;;;;;;;;;;5098533;28;21013;-78
2022/02/10 16:43:09;;;;;;;5.03;3.10;;;;;;;;;;5091506;28;20776;-78
2022/02/10 16:45:37;;;;;;;3.87;3.57;;;;;;;;;;5091376;28;20447;-78
2022/02/10 16:48:06;;;;;;;3.90;3.50;;;;;;;;;;5091949;28;20428;-82
2022/02/10 16:50:33;;;;;;;8.23;4.03;;;;;;;;;;5091951;28;20566;-81
2022/02/10 16:53:05;;;;;;;7.00;3.60;;;;;;;;;;5094988;28;20470;-83
2022/02/10 16:55:43;;;;;;;4.37;3.70;;;;;;;;;;5105765;28;20740;-81
2022/02/10 16:58:20;;;;;;;5.57;4.13;;;;;;;;;;5100979;28;20473;-78
2022/02/10 17:03:47;;;;;;;4.63;4.13;;;;;;;;;;5105781;28;20438;-79
2022/02/10 17:14:40;;;;;;;4.97;3.70;;;;;;;;;;5089033;28;20918;-78
2022/02/10 17:20:12;;;;;;;4.97;4.10;;;;;;;;;;5111296;28;20529;-77
2022/02/10 17:25:25;;;;;;;5.80;4.40;;;;;;;;;;5095828;28;20443;-80
2022/02/10 17:27:58;;;;;;;8.47;5.13;;;;;;;;;;5070782;28;20448;-78
2022/02/10 17:33:13;;;;;;;6.73;4.70;;;;;;;;;;5090571;28;20431;-81
2022/02/10 17:46:38;;;;;;;13.07;6.37;;;;;;;;;;5092466;28;20462;-82
2022/02/10 17:51:57;;;;;;;7.60;5.40;;;;;;;;;;5094342;28;20436;-81
2022/02/10 17:54:25;;;;;;;10.70;6.40;;;;;;;;;;5091087;28;20439;-81
2022/02/10 17:56:52;;;;;;;7.05;5.70;;;;;;;;;;5088069;28;21496;-82
2022/02/10 17:59:20;;;;;;;6.67;4.97;;;;;;;;;;5092819;28;20217;-80
2022/02/10 18:01:49;;;;;;;7.03;5.57;;;;;;;;;;5094685;28;20511;-79
2022/02/10 18:04:17;;;;;;;6.10;5.03;;;;;;;;;;5094637;28;20462;-79
2022/02/10 18:06:47;;;;;;;6.90;4.90;;;;;;;;;;5102203;28;20454;-80
2022/02/10 18:09:46;;;;;;;9.80;5.83;;;;;;;;;;5084611;28;20441;-80
2022/02/10 18:12:57;;;;;;;9.83;5.30;;;;;;;;;;5069527;28;20451;-80
2022/02/10 18:15:21;;;;;;;6.93;5.77;;;;;;;;;;5085948;28;20450;-80
2022/02/10 18:17:59;;;;;;;8.30;5.40;;;;;;;;;;5086833;28;20493;-81
2022/02/10 18:20:33;;;;;;;9.33;5.57;;;;;;;;;;5097876;28;21324;-78
2022/02/10 18:23:12;;;;;;;8.60;5.90;;;;;;;;;;5105129;28;20912;-82
2022/02/10 18:25:50;;;;;;;12.13;5.73;;;;;;;;;;5103099;28;20458;-80
2022/02/10 18:34:13;;;;;;;12.67;7.30;;;;;;;;;;5098242;28;20567;-79
2022/02/10 19:09:06;;;;;;;12.30;8.00;;;;;;;;;;5092061;28;20197;-82
2022/02/10 19:11:36;;;;;;;13.20;7.40;;;;;;;;;;5095461;28;20217;-83
2022/02/10 19:14:10;;;;;;;15.98;9.88;;;;;;;;;;5095087;28;20844;-82
2022/02/10 19:16:40;;;;;;;15.90;9.20;;;;;;;;;;5097126;28;20296;-81
2022/02/10 19:19:07;;;;;;;18.95;10.50;;;;;;;;;;5100915;28;20470;-85
2022/02/10 19:21:34;;;;;;;12.33;9.00;;;;;;;;;;5107483;28;20205;-86
2022/02/10 19:24:01;;;;;;;10.70;7.80;;;;;;;;;;5103443;28;20466;-84
2022/02/10 19:26:28;;;;;;;10.77;7.30;;;;;;;;;;5106754;28;20462;-84
2022/02/10 19:28:55;;;;;;;9.57;6.20;;;;;;;;;;5093149;28;20439;-82
2022/02/10 19:31:25;;;;;;;12.60;5.63;;;;;;;;;;5092424;28;20338;-82
2022/02/10 19:33:53;;;;;;;6.90;5.25;;;;;;;;;;5095681;28;20825;-82
2022/02/10 19:36:21;;;;;;;10.73;6.53;;;;;;;;;;5106150;28;20625;-82
2022/02/10 19:38:48;;;;;;;12.18;6.78;;;;;;;;;;5089158;28;20220;-82
2022/02/10 19:41:15;;;;;;;10.68;6.85;;;;;;;;;;5099502;28;20543;-80
2022/02/10 19:43:43;;;;;;;9.35;6.65;;;;;;;;;;5100891;28;20198;-86
2022/02/10 19:46:15;;;;;;;13.00;7.25;;;;;;;;;;5091519;28;20669;-84
2022/02/10 19:48:44;;;;;;;8.38;6.63;;;;;;;;;;5093419;28;20189;-82
2022/02/10 19:51:11;;;;;;;11.40;8.23;;;;;;;;;;5092390;28;20300;-82
2022/02/10 19:53:38;;;;;;;9.98;6.82;;;;;;;;;;5092933;28;20597;-83
2022/02/10 19:56:05;;;;;;;6.43;5.82;;;;;;;;;;5093431;28;20193;-81
2022/02/10 19:58:33;;;;;;;10.73;6.03;;;;;;;;;;5100632;28;20231;-88
2022/02/10 20:01:03;;;;;;;11.15;6.25;;;;;;;;;;5099294;28;20304;-86
2022/02/10 20:03:37;;;;;;;9.40;5.90;;;;;;;;;;5087928;28;20190;-87
2022/02/10 20:06:05;;;;;;;6.82;5.43;;;;;;;;;;5090531;28;20196;-86
2022/02/10 20:08:32;;;;;;;6.70;3.55;;;;;;;;;;5090489;28;20620;-87
2022/02/10 20:11:00;;;;;;;3.03;1.98;;;;;;;;;;5094481;28;20837;-89
2022/02/10 20:13:28;;;;;;;2.88;1.88;;;;;;;;;;5095476;28;20197;-88
2022/02/10 20:15:56;;;;;;;3.50;1.70;;;;;;;;;;5084506;28;20200;-88
2022/02/10 20:18:23;;;;;;;2.08;1.20;;;;;;;;;;5098896;28;20270;-87
2022/02/10 20:20:54;;;;;;;1.70;1.45;;;;;;;;;;5100719;28;20577;-87
2022/02/10 20:23:22;;;;;;;1.95;1.50;;;;;;;;;;5071849;28;20198;-87
2022/02/10 20:25:59;;;;;;;1.50;1.05;;;;;;;;;;5072677;28;20694;-88
2022/02/10 20:28:27;;;;;;;1.90;1.50;;;;;;;;;;5085824;28;20188;-90
2022/02/10 20:30:54;;;;;;;3.20;1.65;;;;;;;;;;5107844;28;20378;-91
2022/02/10 20:33:31;;;;;;;3.60;1.30;;;;;;;;;;5090018;28;20221;-88
2022/02/10 20:36:01;;;;;;;1.52;1.42;;;;;;;;;;5094052;28;20282;-84
2022/02/10 20:38:31;;;;;;;1.95;1.40;;;;;;;;;;5087871;28;20213;-89
2022/02/10 20:41:01;;;;;;;2.40;1.77;;;;;;;;;;5086047;28;20221;-84
2022/02/10 20:43:30;;;;;;;2.45;2.10;;;;;;;;;;5085593;28;20246;-89
2022/02/10 20:46:01;;;;;;;4.07;2.53;;;;;;;;;;5089744;28;20242;-84
2022/02/10 20:48:31;;;;;;;2.72;1.85;;;;;;;;;;5087820;28;20656;-87
2022/02/10 20:51:01;;;;;;;1.73;1.58;;;;;;;;;;5092304;28;20273;-84
2022/02/10 20:53:38;;;;;;;2.05;1.85;;;;;;;;;;5096166;28;20193;-85
2022/02/10 20:56:07;;;;;;;2.42;1.77;;;;;;;;;;5090976;28;20561;-87
2022/02/10 20:58:34;;;;;;;2.92;2.00;;;;;;;;;;5087502;28;20613;-84
2022/02/10 21:01:03;;;;;;;2.88;2.45;;;;;;;;;;5089340;28;20398;-84
2022/02/10 21:03:33;;;;;;;3.40;2.70;;;;;;;;;;5089484;28;20260;-83
2022/02/10 21:06:08;;;;;;;2.80;2.20;;;;;;;;;;5088054;28;20189;-85
2022/02/10 21:08:43;;;;;;;4.15;2.17;;;;;;;;;;5070939;28;20713;-84
2022/02/10 21:11:11;;;;;;;4.85;2.28;;;;;;;;;;5084919;28;20213;-84
2022/02/10 21:13:38;;;;;;;2.58;2.15;;;;;;;;;;5092993;28;20664;-82
2022/02/10 21:16:06;;;;;;;3.78;2.70;;;;;;;;;;5094896;28;20250;-87
2022/02/10 21:18:40;;;;;;;3.42;2.40;;;;;;;;;;5083940;28;20804;-84
2022/02/10 21:21:14;;;;;;;3.38;3.08;;;;;;;;;;5088372;28;21036;-84
2022/02/10 21:23:50;;;;;;;2.90;2.17;;;;;;;;;;5089187;28;20205;-84
2022/02/10 21:26:20;;;;;;;3.53;2.35;;;;;;;;;;5088615;28;20185;-83
2022/02/10 21:31:32;;;;;;;2.60;2.40;;;;;;;;;;5066779;28;20222;-88
2022/02/10 21:34:09;;;;;;;5.30;3.00;;;;;;;;;;5087546;28;20540;-84
2022/02/10 21:37:01;;;;;;;7.53;2.97;;;;;;;;;;5092932;28;20220;-85
2022/02/10 21:39:48;;;;;;;4.85;2.72;;;;;;;;;;5095154;28;20579;-86
2022/02/10 21:56:18;;;;;;;1.90;1.48;;;;;;;;;;5087584;28;20783;-81
2022/02/10 22:09:40;;;;;;;2.72;1.70;;;;;;;;;;5101724;28;20196;-82
2022/02/10 22:16:20;;;;;;;2.08;1.60;;;;;;;;;;5093600;28;20540;-80
2022/02/10 22:20:33;;;;;;;4.80;1.40;;;;;;;;;;5092453;28;20221;-83
2022/02/10 22:23:05;;;;;;;4.35;1.70;;;;;;;;;;5083341;28;20194;-83
2022/02/10 22:25:33;;;;;;;2.00;1.15;;;;;;;;;;5080829;28;20200;-83
2022/02/10 22:28:10;;;;;;;3.00;1.45;;;;;;;;;;5086860;28;20201;-84
2022/02/10 22:30:47;;;;;;;4.63;1.80;;;;;;;;;;5069397;28;20209;-82
2022/02/10 22:33:26;;;;;;;4.60;2.00;;;;;;;;;;5086786;28;20209;-82
2022/02/10 22:35:54;;;;;;;5.38;2.17;;;;;;;;;;5094519;28;20225;-83
2022/02/10 22:38:22;;;;;;;3.00;2.00;;;;;;;;;;5093423;28;20196;-81
2022/02/10 22:41:01;;;;;;;7.15;2.45;;;;;;;;;;5089046;28;20221;-84
2022/02/10 22:43:30;;;;;;;3.58;2.40;;;;;;;;;;5100153;28;20224;-81
2022/02/10 22:45:57;;;;;;;2.60;2.40;;;;;;;;;;5098786;28;20215;-82
2022/02/10 22:48:24;;;;;;;5.25;2.63;;;;;;;;;;5089004;28;20748;-83
2022/02/10 22:50:51;;;;;;;3.17;2.25;;;;;;;;;;5095265;28;20594;-83
2022/02/10 22:53:18;;;;;;;2.38;2.15;;;;;;;;;;5097177;28;20201;-83
2022/02/10 22:55:45;;;;;;;3.47;2.22;;;;;;;;;;5091277;28;20201;-83
2022/02/10 22:58:13;;;;;;;5.07;2.30;;;;;;;;;;5106136;28;20204;-82
2022/02/10 23:00:46;;;;;;;5.13;2.10;;;;;;;;;;5089864;28;20221;-82
2022/02/10 23:03:14;;;;;;;2.50;2.10;;;;;;;;;;5089971;28;20647;-84
2022/02/10 23:05:41;;;;;;;2.60;2.13;;;;;;;;;;5089123;28;20693;-83
2022/02/10 23:08:10;;;;;;;4.30;2.40;;;;;;;;;;5094291;28;20547;-84
2022/02/10 23:10:46;;;;;;;3.60;2.35;;;;;;;;;;5093700;28;20220;-83
2022/02/10 23:13:15;;;;;;;6.63;2.40;;;;;;;;;;5108624;28;20669;-83
2022/02/10 23:15:43;;;;;;;3.05;1.90;;;;;;;;;;5110143;28;20201;-83
2022/02/10 23:18:11;;;;;;;2.10;1.90;;;;;;;;;;5108991;28;20199;-83
2022/02/10 23:20:39;;;;;;;2.67;2.47;;;;;;;;;;5109278;28;20224;-83
2022/02/10 23:23:09;;;;;;;3.38;2.10;;;;;;;;;;5098421;28;20205;-84
2022/02/10 23:25:37;;;;;;;3.75;2.15;;;;;;;;;;5096119;28;20189;-83
2022/02/10 23:28:05;;;;;;;2.35;1.95;;;;;;;;;;5091884;28;20200;-83
2022/02/10 23:30:32;;;;;;;4.57;2.33;;;;;;;;;;5067719;28;20217;-83
2022/02/10 23:33:07;;;;;;;3.65;2.50;;;;;;;;;;5069106;28;20557;-83
2022/02/10 23:38:17;;;;;;;2.80;2.13;;;;;;;;;;5100440;28;20233;-83
2022/02/10 23:41:07;;;;;;;4.07;2.22;;;;;;;;;;5101103;28;20321;-82
2022/02/10 23:43:34;;;;;;;2.20;1.67;;;;;;;;;;5100677;28;20249;-83
2022/02/10 23:46:01;;;;;;;2.63;2.00;;;;;;;;;;5100690;28;20563;-83
2022/02/10 23:48:31;;;;;;;2.45;2.08;;;;;;;;;;5109286;28;20198;-83
2022/02/10 23:50:58;;;;;;;3.50;2.67;;;;;;;;;;5092331;28;20304;-84
2022/02/10 23:53:26;;;;;;;3.35;2.60;;;;;;;;;;5093584;28;20197;-83
2022/02/10 23:55:54;;;;;;;3.50;2.05;;;;;;;;;;5097328;28;20197;-84
2022/02/10 23:58:30;;;;;;;2.33;2.13;;;;;;;;;;5093006;27;20202;-83
